Morgan Hill, CA

9:44 PM PST on December 21, 2014 (GMT -0800)
Spring Hill near Cemetary | Change Station
CLOSE
Current Station
Personal Weather Station
Location: Morgan Hill, CA
Elevation: 374 ft
Nearby Weather Stations

Elev 374 ft 37.12 °N, 121.66 °W | Updated 3 minutes ago

Overcast
Overcast
56.6 °F
Feels Like 56.6 °F
N
4.0
Wind Variable Wind from NW
Gusts 7.0 mph

Today
High -- | Low -- °F
--% Chance of Precip.
Yesterday
High -- | Low -- °F
Precip. -- in
7:16 AM 4:53 PM
New Moon, 0% visible
Pressure 30.29 in
Visibility 10.0 miles
Clouds Few 800 ft
Mostly Cloudy 1200 ft
Dew Point 56 °F
Humidity 99%
Rainfall 0.00 in
Snow Depth Not available.
UV 0 out of 12
Pollen 3.40 out of 12
Air Quality Not available.
Flu Activity Not available.
METAR KSJC 220453Z 31007KT 10SM FEW008 BKN012 15/14 A3029 RMK AO2 SLP257 T01500139

More Conditions Fewer Conditions

Pressure 30.29 in
Visibility 10.0 miles
Clouds Few 800 ft
Mostly Cloudy 1200 ft
Dew Point 56 °F
Humidity 99%
Rainfall 0.00 in
Snow Depth Not available.
UV 0 out of 12
Pollen 3.40 out of 12
Air Quality Not available.
Flu Activity Not available.
METAR KSJC 220453Z 31007KT 10SM FEW008 BKN012 15/14 A3029 RMK AO2 SLP257 T01500139

More Conditions Fewer Conditions

10-Day Weather Forecast

Almanac

Astronomy

Dec. 21, 2014 Rise Set
Actual Time
Civil Twilight
Nautical Twilight
Astronomical Twilight
Moon
Length of Visible Light
Length of Day
Tomorrow will be .
, % of the Moon is Illuminated

Today's Extremes

State Highs State Lows

Community

WunderPhotos

Upload Photos

1,779,549 photos uploaded!

WunderBlogs® & News

Nearby

Air Quality

  Air Quality AQ Index Pollutant
Not available.

Snow Depth

Station Depth Elevation

Earthquake Activity

City Distance Mag. Time & Date
Minimum magnitude displayed is 2.5.

Coastal Water Temperatures

Place Temperature

Nearby Weather Stations